createdAt,value
2018-12-10T00:01:20.342Z,5.30
2018-12-10T00:04:45.023Z,5.20
2018-12-10T00:08:09.796Z,5.20
2018-12-10T00:11:34.610Z,5.10
2018-12-10T00:14:59.337Z,5.10
2018-12-10T00:18:24.085Z,5.10
2018-12-10T00:21:48.819Z,5.10
2018-12-10T00:25:13.525Z,5.00
2018-12-10T00:28:38.250Z,5.00
2018-12-10T00:32:03.089Z,4.90
2018-12-10T00:35:27.884Z,4.80
2018-12-10T00:38:52.621Z,4.80
2018-12-10T00:42:17.371Z,4.80
2018-12-10T00:45:42.156Z,4.90
2018-12-10T00:49:06.859Z,4.90
2018-12-10T00:52:31.656Z,5.00
2018-12-10T00:55:56.369Z,5.00
2018-12-10T00:59:21.064Z,5.00
2018-12-10T01:02:45.765Z,5.00
2018-12-10T01:06:10.520Z,4.90
2018-12-10T01:09:35.232Z,4.90
2018-12-10T01:12:59.887Z,4.90
2018-12-10T01:16:24.628Z,4.90
2018-12-10T01:19:49.353Z,4.80
2018-12-10T01:23:14.076Z,4.70
2018-12-10T01:26:38.794Z,4.70
2018-12-10T01:30:03.574Z,4.60
2018-12-10T01:33:28.276Z,4.60
2018-12-10T01:36:53.024Z,4.50
2018-12-10T01:40:17.774Z,4.50
2018-12-10T01:43:42.478Z,4.50
2018-12-10T01:47:07.181Z,4.60
2018-12-10T01:50:32.136Z,4.60
2018-12-10T01:53:56.867Z,4.70
2018-12-10T01:57:21.594Z,4.70
2018-12-10T02:00:46.387Z,4.70
2018-12-10T02:04:11.181Z,4.80
2018-12-10T02:07:35.930Z,4.90
2018-12-10T02:11:00.714Z,4.90
2018-12-10T02:14:25.452Z,5.00
2018-12-10T02:17:50.160Z,5.00
2018-12-10T02:21:14.886Z,4.90
2018-12-10T02:24:39.660Z,4.80
2018-12-10T02:28:04.390Z,4.80
2018-12-10T02:31:29.088Z,4.80
2018-12-10T02:34:53.823Z,4.70
2018-12-10T02:38:18.652Z,4.80
2018-12-10T02:41:43.492Z,4.80
2018-12-10T02:45:08.404Z,4.80
2018-12-10T02:48:33.170Z,4.80
2018-12-10T02:51:57.917Z,4.70
2018-12-10T02:55:22.658Z,4.70
2018-12-10T02:58:47.356Z,4.60
2018-12-10T03:02:12.229Z,4.50
2018-12-10T03:05:37.007Z,4.50
2018-12-10T03:09:01.751Z,4.40
2018-12-10T03:12:26.504Z,4.40
2018-12-10T03:15:51.173Z,4.40
2018-12-10T03:19:15.913Z,4.40
2018-12-10T03:22:40.610Z,4.60
2018-12-10T03:26:05.354Z,4.70
2018-12-10T03:29:30.050Z,4.70
2018-12-10T03:32:54.719Z,4.70
2018-12-10T03:36:19.464Z,4.70
2018-12-10T03:39:44.201Z,4.70
2018-12-10T03:43:08.909Z,4.50
2018-12-10T03:46:33.641Z,4.40
2018-12-10T03:49:58.352Z,4.40
2018-12-10T03:53:23.066Z,4.40
2018-12-10T03:56:47.796Z,4.40
2018-12-10T04:00:12.552Z,4.40
2018-12-10T04:03:37.292Z,4.40
2018-12-10T04:07:02.038Z,4.50
2018-12-10T04:10:26.752Z,4.50
2018-12-10T04:13:51.468Z,4.60
2018-12-10T04:17:16.193Z,4.70
2018-12-10T04:20:41.001Z,4.80
2018-12-10T04:24:05.730Z,4.80
2018-12-10T04:27:30.480Z,4.80
2018-12-10T04:30:55.267Z,4.70
2018-12-10T04:34:19.954Z,4.50
2018-12-10T04:37:44.686Z,4.50
2018-12-10T04:41:09.367Z,4.60
2018-12-10T04:44:34.131Z,4.80
2018-12-10T04:47:58.797Z,4.80
2018-12-10T04:51:23.494Z,4.90
2018-12-10T04:54:48.176Z,4.90
2018-12-10T04:58:12.887Z,5.00
2018-12-10T05:01:37.599Z,5.10
2018-12-10T05:05:02.331Z,5.10
2018-12-10T05:08:27.295Z,5.00
2018-12-10T05:11:52.024Z,4.90
2018-12-10T05:15:16.663Z,4.70
2018-12-10T05:18:41.489Z,4.60
2018-12-10T05:22:06.182Z,4.50
2018-12-10T05:25:30.862Z,4.50
2018-12-10T05:28:55.653Z,4.50
2018-12-10T05:32:20.407Z,4.60
2018-12-10T05:35:45.141Z,4.70
2018-12-10T05:39:09.894Z,4.80
2018-12-10T05:42:34.567Z,4.90
2018-12-10T05:45:59.270Z,4.90
2018-12-10T05:49:23.951Z,4.80
2018-12-10T05:52:50.517Z,4.80
2018-12-10T05:56:18.062Z,4.70
2018-12-10T05:59:42.844Z,4.50
2018-12-10T06:03:07.533Z,4.30
2018-12-10T06:06:32.258Z,4.20
2018-12-10T06:09:56.952Z,4.10
2018-12-10T06:13:21.586Z,4.00
2018-12-10T06:16:46.329Z,4.00
2018-12-10T06:20:12.129Z,3.90
2018-12-10T06:23:37.751Z,3.90
2018-12-10T06:27:02.584Z,3.80
2018-12-10T06:30:27.278Z,3.80
2018-12-10T06:33:51.947Z,3.80
2018-12-10T06:37:16.628Z,3.90
2018-12-10T06:40:41.285Z,3.90
2018-12-10T06:44:05.980Z,3.80
2018-12-10T06:47:30.796Z,3.70
2018-12-10T06:50:55.491Z,3.70
2018-12-10T06:54:20.062Z,3.70
2018-12-10T06:57:44.782Z,3.60
2018-12-10T07:01:09.498Z,3.70
2018-12-10T07:04:34.143Z,3.70
2018-12-10T07:07:58.827Z,3.70
2018-12-10T07:11:23.484Z,3.70
2018-12-10T07:14:48.257Z,3.70
2018-12-10T07:18:13.018Z,3.80
2018-12-10T07:21:37.683Z,3.90
2018-12-10T07:25:02.419Z,3.90
2018-12-10T07:28:27.134Z,3.90
2018-12-10T07:31:51.882Z,3.80
2018-12-10T07:35:16.592Z,3.80
2018-12-10T07:38:41.230Z,3.70
2018-12-10T07:42:05.993Z,3.60
2018-12-10T07:45:30.665Z,3.50
2018-12-10T07:48:55.383Z,3.50
2018-12-10T07:52:20.077Z,3.70
2018-12-10T07:55:44.751Z,3.70
2018-12-10T07:59:09.435Z,3.70
2018-12-10T08:02:34.145Z,3.80
2018-12-10T08:05:58.831Z,4.00
2018-12-10T08:09:23.527Z,4.20
2018-12-10T08:12:48.218Z,4.20
2018-12-10T08:16:12.995Z,4.20
2018-12-10T08:19:37.717Z,4.10
2018-12-10T08:23:02.491Z,4.10
2018-12-10T08:26:27.191Z,4.20
2018-12-10T08:29:51.887Z,4.30
2018-12-10T08:33:16.578Z,4.40
2018-12-10T08:36:41.314Z,4.40
2018-12-10T08:40:06.417Z,4.40
2018-12-10T08:43:31.149Z,4.60
2018-12-10T08:46:56.889Z,4.90
2018-12-10T08:50:21.536Z,5.00
2018-12-10T08:53:46.229Z,5.20
2018-12-10T08:57:10.984Z,5.30
2018-12-10T09:00:35.893Z,5.30
2018-12-10T09:04:00.631Z,5.40
2018-12-10T09:07:25.306Z,5.40
2018-12-10T09:10:50.047Z,5.40
2018-12-10T09:14:14.695Z,5.40
2018-12-10T09:17:39.417Z,5.40
2018-12-10T09:21:04.058Z,5.40
2018-12-10T09:24:28.699Z,5.50
2018-12-10T09:27:53.377Z,5.50
2018-12-10T09:31:18.058Z,5.60
2018-12-10T09:34:42.766Z,5.70
2018-12-10T09:38:07.444Z,5.80
2018-12-10T09:41:32.114Z,5.80
2018-12-10T09:44:56.801Z,5.80
2018-12-10T09:48:21.589Z,5.80
2018-12-10T09:51:46.262Z,5.70
2018-12-10T09:55:11.074Z,5.70
2018-12-10T09:58:35.784Z,5.70
2018-12-10T10:02:00.480Z,5.80
2018-12-10T10:05:25.172Z,5.80
2018-12-10T10:08:50.079Z,5.60
2018-12-10T10:12:14.860Z,5.60
2018-12-10T10:15:39.591Z,5.50
2018-12-10T10:19:05.243Z,5.60
2018-12-10T10:22:29.912Z,5.70
2018-12-10T10:25:54.923Z,5.80
2018-12-10T10:29:19.678Z,5.80
2018-12-10T10:32:44.400Z,5.80
2018-12-10T10:36:09.129Z,5.70
2018-12-10T10:39:33.876Z,5.80
2018-12-10T10:42:58.682Z,6.10
2018-12-10T10:46:23.783Z,6.30
2018-12-10T10:49:48.559Z,6.50
2018-12-10T10:53:13.301Z,6.60
2018-12-10T10:56:38.115Z,6.50
2018-12-10T11:00:02.840Z,6.40
2018-12-10T11:03:32.485Z,6.20
2018-12-10T11:07:03.088Z,6.00
2018-12-10T11:10:27.959Z,5.90
2018-12-10T11:13:52.701Z,5.80
2018-12-10T11:17:17.418Z,5.80
2018-12-10T11:20:42.164Z,5.80
2018-12-10T11:24:06.825Z,6.00
2018-12-10T11:27:31.546Z,6.30
2018-12-10T11:30:56.183Z,6.40
2018-12-10T11:34:20.894Z,6.20
2018-12-10T11:37:45.593Z,6.20
2018-12-10T11:41:10.385Z,6.20
2018-12-10T11:44:36.507Z,6.30
2018-12-10T11:48:01.238Z,6.40
2018-12-10T11:51:25.944Z,6.40
2018-12-10T11:54:50.632Z,6.50
2018-12-10T11:58:15.396Z,6.40
2018-12-10T12:01:40.068Z,6.30
2018-12-10T12:05:04.894Z,6.20
2018-12-10T12:08:29.606Z,6.20
2018-12-10T12:11:54.328Z,6.10
2018-12-10T12:15:19.249Z,6.00
2018-12-10T12:18:48.993Z,6.10
2018-12-10T12:22:13.778Z,6.10
2018-12-10T12:25:38.450Z,6.00
2018-12-10T12:29:03.123Z,6.00
2018-12-10T12:32:27.801Z,6.00
2018-12-10T12:35:52.652Z,6.00
2018-12-10T12:39:17.334Z,5.90
2018-12-10T12:42:42.012Z,6.00
2018-12-10T12:46:06.698Z,5.90
2018-12-10T12:49:31.398Z,6.10
2018-12-10T12:52:56.134Z,6.30
2018-12-10T12:56:20.824Z,6.60
2018-12-10T12:59:45.491Z,6.70
2018-12-10T13:03:10.238Z,7.10
2018-12-10T13:06:35.012Z,7.20
2018-12-10T13:09:59.674Z,7.30
2018-12-10T13:13:24.468Z,7.40
2018-12-10T13:16:49.676Z,7.70
2018-12-10T13:20:14.743Z,7.70
2018-12-10T13:23:39.453Z,7.40
2018-12-10T13:27:04.178Z,7.30
2018-12-10T13:30:28.958Z,7.20
2018-12-10T13:33:53.819Z,7.10
2018-12-10T13:37:18.425Z,6.80
2018-12-10T13:40:43.176Z,6.60
2018-12-10T13:44:07.899Z,6.50
2018-12-10T13:47:32.601Z,6.30
2018-12-10T13:50:57.294Z,6.30
2018-12-10T13:54:22.022Z,6.50
2018-12-10T13:57:46.754Z,7.10
2018-12-10T14:01:11.457Z,7.40
2018-12-10T14:08:14.706Z,8.40
2018-12-10T14:11:39.467Z,8.00
2018-12-10T14:15:05.212Z,7.80
2018-12-10T14:18:29.973Z,7.50
2018-12-10T14:21:54.789Z,7.30
2018-12-10T14:25:26.987Z,7.50
2018-12-10T14:28:51.666Z,7.60
2018-12-10T14:32:16.349Z,7.40
2018-12-10T14:35:41.034Z,7.60
2018-12-10T14:39:10.536Z,7.50
2018-12-10T14:42:51.001Z,7.10
2018-12-10T14:46:15.708Z,6.90
2018-12-10T14:49:40.720Z,6.60
2018-12-10T14:53:08.209Z,6.50
2018-12-10T14:56:32.910Z,6.40
2018-12-10T15:00:08.266Z,6.30
2018-12-10T15:03:32.967Z,6.10
2018-12-10T15:06:57.623Z,6.00
2018-12-10T15:10:23.391Z,5.90
2018-12-10T15:13:48.294Z,5.80
2018-12-10T15:17:13.137Z,5.60
2018-12-10T15:20:38.008Z,5.60
2018-12-10T15:24:02.719Z,5.50
2018-12-10T15:27:27.393Z,5.40
2018-12-10T15:30:52.178Z,5.40
2018-12-10T15:34:16.864Z,5.30
2018-12-10T15:37:42.464Z,5.20
2018-12-10T15:41:07.326Z,5.20
2018-12-10T15:44:32.565Z,5.20
2018-12-10T15:47:57.301Z,5.30
2018-12-10T15:51:22.039Z,5.70
2018-12-10T15:54:47.061Z,5.60
2018-12-10T15:58:11.826Z,5.30
2018-12-10T16:01:36.448Z,5.20
2018-12-10T16:05:01.163Z,5.10
2018-12-10T16:08:25.930Z,4.90
2018-12-10T16:11:50.635Z,4.80
2018-12-10T16:15:15.445Z,4.70
2018-12-10T16:18:40.124Z,4.70
2018-12-10T16:22:04.895Z,4.70
2018-12-10T16:25:29.658Z,4.70
2018-12-10T16:28:54.344Z,4.70
2018-12-10T16:32:19.096Z,4.80
2018-12-10T16:35:44.171Z,4.80
2018-12-10T16:39:10.795Z,4.80
2018-12-10T16:42:35.466Z,4.90
2018-12-10T16:46:00.162Z,4.90
2018-12-10T16:49:24.871Z,4.90
2018-12-10T16:52:49.524Z,4.90
2018-12-10T16:56:14.441Z,4.80
2018-12-10T16:59:39.250Z,4.80
2018-12-10T17:03:04.267Z,4.80
2018-12-10T17:06:28.999Z,4.70
2018-12-10T17:09:53.705Z,4.60
2018-12-10T17:13:18.383Z,4.60
2018-12-10T17:16:43.141Z,4.70
2018-12-10T17:20:08.537Z,4.60
2018-12-10T17:23:33.275Z,4.60
2018-12-10T17:26:57.935Z,4.60
2018-12-10T17:30:22.598Z,4.60
2018-12-10T17:33:47.356Z,4.60
2018-12-10T17:37:12.045Z,4.50
2018-12-10T17:40:36.763Z,4.40
2018-12-10T17:44:01.807Z,4.40
2018-12-10T17:47:26.532Z,4.40
2018-12-10T17:50:52.252Z,4.50
2018-12-10T17:54:16.913Z,4.50
2018-12-10T17:57:41.613Z,4.50
2018-12-10T18:01:06.338Z,4.40
2018-12-10T18:04:31.106Z,4.30
2018-12-10T18:07:55.790Z,4.30
2018-12-10T18:11:20.462Z,4.20
2018-12-10T18:14:45.157Z,4.10
2018-12-10T18:18:09.815Z,4.10
2018-12-10T18:21:34.459Z,4.00
2018-12-10T18:24:59.096Z,4.10
2018-12-10T18:28:23.797Z,4.10
2018-12-10T18:31:48.584Z,4.10
2018-12-10T18:35:13.443Z,4.00
2018-12-10T18:38:38.112Z,4.10
2018-12-10T18:42:02.801Z,4.10
2018-12-10T18:45:28.182Z,4.10
2018-12-10T18:48:53.088Z,4.10
2018-12-10T18:52:17.770Z,4.00
2018-12-10T18:55:42.554Z,3.90
2018-12-10T18:59:07.273Z,3.90
2018-12-10T19:02:32.017Z,3.90
2018-12-10T19:05:56.871Z,4.00
2018-12-10T19:09:21.498Z,4.20
2018-12-10T19:12:46.173Z,4.20
2018-12-10T19:16:11.117Z,4.10
2018-12-10T19:19:35.807Z,4.10
2018-12-10T19:23:00.818Z,4.10
2018-12-10T19:26:25.582Z,4.10
2018-12-10T19:29:50.396Z,4.00
2018-12-10T19:33:15.215Z,4.00
2018-12-10T19:36:39.953Z,4.10
2018-12-10T19:40:05.116Z,4.20
2018-12-10T19:43:29.872Z,4.30
2018-12-10T19:46:55.739Z,4.40
2018-12-10T19:50:21.332Z,4.50
2018-12-10T19:53:46.192Z,4.50
2018-12-10T19:57:10.922Z,4.50
2018-12-10T20:00:35.861Z,4.50
2018-12-10T20:04:00.544Z,4.50
2018-12-10T20:10:58.962Z,4.50
2018-12-10T20:14:23.704Z,4.60
2018-12-10T20:17:49.532Z,4.70
2018-12-10T20:21:14.255Z,4.60
2018-12-10T20:24:38.995Z,4.60
2018-12-10T20:28:03.789Z,4.50
2018-12-10T20:31:28.439Z,4.40
2018-12-10T20:34:53.213Z,4.20
2018-12-10T20:38:20.536Z,4.10
2018-12-10T20:41:46.278Z,4.10
2018-12-10T20:45:11.651Z,4.10
2018-12-10T20:48:36.370Z,4.10
2018-12-10T20:52:01.014Z,4.20
2018-12-10T20:55:29.388Z,4.20
2018-12-10T20:58:56.555Z,4.20
2018-12-10T21:02:21.234Z,4.10
2018-12-10T21:05:51.852Z,4.10
2018-12-10T21:09:17.128Z,4.10
2018-12-10T21:12:43.801Z,4.10
2018-12-10T21:16:10.521Z,4.10
2018-12-10T21:19:35.366Z,4.10
2018-12-10T21:23:00.113Z,4.20
2018-12-10T21:26:25.076Z,4.20
2018-12-10T21:29:49.962Z,4.20
2018-12-10T21:33:14.769Z,4.20
2018-12-10T21:36:40.383Z,4.20
2018-12-10T21:40:06.283Z,4.20
2018-12-10T21:43:31.031Z,4.10
2018-12-10T21:46:55.841Z,4.10
2018-12-10T21:50:22.164Z,4.00
2018-12-10T21:53:48.045Z,3.90
2018-12-10T21:57:13.007Z,3.90
2018-12-10T22:00:38.072Z,3.90
2018-12-10T22:04:03.304Z,3.80
2018-12-10T22:07:28.159Z,3.80
2018-12-10T22:10:52.952Z,3.70
2018-12-10T22:14:20.714Z,3.60
2018-12-10T22:17:46.364Z,3.50
2018-12-10T22:21:12.245Z,3.50
2018-12-10T22:24:38.188Z,3.40
2018-12-10T22:28:02.944Z,3.30
2018-12-10T22:31:27.705Z,3.30
2018-12-10T22:34:52.960Z,3.20
2018-12-10T22:38:17.653Z,3.10
2018-12-10T22:41:42.402Z,3.10
2018-12-10T22:45:07.686Z,3.10
2018-12-10T22:48:32.468Z,3.10
2018-12-10T22:51:57.205Z,3.10
2018-12-10T22:55:21.968Z,3.20
2018-12-10T22:58:46.692Z,3.20
2018-12-10T23:02:11.440Z,3.20
2018-12-10T23:05:36.679Z,3.20
2018-12-10T23:09:03.862Z,3.30
2018-12-10T23:12:28.999Z,3.30
2018-12-10T23:15:53.859Z,3.30
2018-12-10T23:19:18.694Z,3.40
2018-12-10T23:22:43.363Z,3.40
2018-12-10T23:26:08.181Z,3.30
2018-12-10T23:29:36.016Z,3.30
2018-12-10T23:33:00.771Z,3.20
2018-12-10T23:36:25.468Z,3.20
2018-12-10T23:39:50.161Z,3.20
2018-12-10T23:43:20.164Z,3.20
2018-12-10T23:46:45.128Z,3.20
2018-12-10T23:50:09.856Z,3.10
2018-12-10T23:53:34.579Z,3.00
2018-12-10T23:56:59.286Z,2.90
